Latest Coastal Weather Observations for Townsville

IDQ60701

Issued at 3:42 am EST Monday 8 February 2016 (issued every 10 minutes, with the page automatically refreshed every 10 minutes)

About coastal observations | Map of coastal stations | Coastal observations for QLD | Marine services | Other Formats
Station Details ID: 032040 Name: TOWNSVILLE AERO Lat: -19.25 Lon: 146.77 Height: 4.34 m
Data from the previous 72 hours. | See also: Recent months at Townsville
Date/Time
EST
Temp

°C
Wind Pressure Rain
since 9am
mm
Weather Cloud Vis
km
Sea
Height
m
Swell
Dir
 
Speed
knots
Gust
knots
hPa Trend Height
m
Period
s
Dir
08/03:30am 27.4 SE 6 7 1007.5 - 4.0 - - 10 - - - -
08/03:00am 27.6 ESE 5 7 1007.5 R 4.0 - Partly cloudy 10 - - - -
08/02:30am 27.8 SE 8 10 1007.2 - 4.0 - - 10 - - - -
08/02:00am 28.1 ESE 9 12 1007.2 - 4.0 - Partly cloudy 10 - - - -
08/01:38am 28.3 SE 9 14 1007.5 - 4.0 - Partly cloudy 10 - - - -
08/01:30am 28.2 SE 10 13 1007.5 - 4.0 - Partly cloudy 10 - - - -
08/01:20am 28.4 SE 8 12 1007.6 - 4.0 - Partly cloudy 10 - - - -
08/01:00am 28.9 SSE 6 7 1007.9 - 3.8 - Partly cloudy 10 - - - -
08/12:49am 29.0 SSE 5 7 1008.1 - 3.8 - Partly cloudy 10 - - - -
08/12:30am 29.1 E 5 7 1008.2 - 3.8 - Partly cloudy 10 - - - -
08/12:00am 28.7 SSE 5 6 1008.4 R 3.8 - Cloudy 10 - - - -
 
Date/Time
EST
Temp

°C
Wind Pressure Rain
since 9am
mm
Weather Cloud Vis
km
Sea
Height
m
Swell
Dir
 
Speed
knots
Gust
knots
hPa Trend Height
m
Period
s
Dir
07/11:30pm 28.6 N 1 6 1008.6 - 3.8 - Partly cloudy 10 - - - -
07/11:00pm 28.0 N 2 5 1008.4 - 3.8 - Partly cloudy 10 - - - -
07/10:30pm 28.4 W 2 4 1008.5 - 3.8 Showers Partly cloudy 10 - - - -
07/10:00pm 28.0 CALM 0 0 1008.3 - 3.8 - Partly cloudy 10 - - - -
07/09:30pm 27.9 CALM 0 0 1008.2 - 3.8 - Partly cloudy 10 - - - -
07/09:00pm 27.9 CALM 0 0 1007.9 R 3.8 Fine Partly cloudy 30 - - - -
07/08:30pm 28.5 CALM 0 0 1007.8 - 3.8 - Mostly clear 10 - - - -
07/08:00pm 28.4 SW 4 5 1007.6 - 3.8 - Partly cloudy 10 - - - -
07/07:30pm 28.4 W 3 5 1007.4 - 3.8 - Mostly clear 10 - - - -
07/07:00pm 28.2 CALM 0 0 1007.0 - 3.8 - Mostly clear 10 - - - -
07/06:30pm 28.5 W 5 6 1006.3 - 3.8 - Mostly clear 10 - - - -
07/06:00pm 28.6 WSW 4 6 1005.9 R 3.8 Fine Mostly cloudy 30 - - - -
07/05:30pm 28.8 SSW 4 5 1005.6 - 3.8 - Mostly clear 10 - - - -
07/05:00pm 28.0 E 5 6 1005.5 - 3.8 - Mostly clear 10 - - - -
07/04:30pm 27.6 SE 10 14 1006.0 - 3.8 - Mostly clear 10 - - - -
07/04:25pm 27.7 SE 10 14 1006.1 - 3.8 Showers Mostly clear 8 - - - -
07/04:13pm 28.0 SSE 9 15 1005.8 - 3.6 - Partly cloudy 8 - - - -
07/04:00pm 27.7 WNW 3 7 1005.8 - 2.6 - Mostly clear 8 - - - -
07/03:30pm 27.8 WSW 12 18 1005.6 - 0.8 Thunderstorm Partly cloudy 8 - - - -
07/03:00pm 31.3 NE 7 9 1005.1 R 0.0 Thunderstorm Mostly cloudy 25 - - - -
07/02:30pm 32.3 ENE 13 16 1004.6 - 0.0 - Partly cloudy 8 - - - -
07/02:00pm 32.5 ENE 14 19 1004.9 - 0.0 - Mostly clear 9 - - - -
07/01:30pm 32.5 ENE 14 18 1005.1 - 0.0 - - 10 - - - -
07/01:00pm 33.1 NE 12 14 1005.5 - 0.0 - Mostly clear 10 - - - -
07/12:30pm 33.0 NE 9 12 1005.8 - 0.0 - Mostly clear 10 - - - -
07/12:00pm 32.5 NE 10 13 1006.1 R 0.0 Distant precip. Partly cloudy 25 - - - -
07/11:30am 33.0 NE 10 12 1006.3 - 0.0 - Mostly clear 10 - - - -
07/11:00am 32.3 NE 9 11 1006.6 - 0.0 - Partly cloudy 10 - - - -
07/10:30am 32.0 NE 9 10 1006.7 - 0.0 - Partly cloudy 10 - - - -
07/10:00am 31.7 ENE 6 9 1006.8 - 0.0 - Partly cloudy 10 - - - -
07/09:30am 31.4 ENE 6 8 1006.8 - 0.0 - Partly cloudy 10 - - - -
07/09:00am 31.5 E 3 6 1006.7 R 0.2 Haze Mostly cloudy 25 - - - -
07/08:30am 30.9 CALM 0 0 1006.7 - 0.2 - Partly cloudy 10 - - - -
07/08:00am 30.1 SSW 1 5 1006.5 - 0.2 - Mostly clear 10 - - - -
07/07:30am 29.3 SSE 1 5 1006.2 - 0.2 - Mostly clear 10 - - - -
07/07:00am 28.4 SSE 4 5 1006.0 - 0.2 - Mostly clear 10 - - - -
07/06:30am 28.1 SSE 4 5 1005.6 - 0.2 - Mostly clear 10 - - - -
07/06:00am 28.0 SSE 4 5 1005.1 R 0.2 Distant precip. Mostly cloudy 25 - - - -
07/05:30am 28.0 CALM 0 0 1004.8 - 0.2 - Partly cloudy 10 - - - -
07/05:00am 28.4 SSE 1 4 1004.5 - 0.2 - Partly cloudy 10 - - - -
07/04:30am 28.3 SSE 2 4 1004.4 - 0.2 - Partly cloudy 10 - - - -
07/04:05am 28.3 SSE 4 5 1004.2 - 0.2 - Partly cloudy 10 - - - -
07/04:00am 28.3 SSE 4 5 1004.2 - 0.2 - Partly cloudy 10 - - - -
07/03:44am 28.4 SE 4 5 1004.2 - 0.2 - Partly cloudy 10 - - - -
07/03:30am 28.4 SSE 5 6 1004.1 - 0.2 - Partly cloudy 10 - - - -
07/03:00am 28.3 SE 4 5 1004.0 S 0.2 - Cloudy 10 - - - -
07/02:31am 28.4 SE 6 8 1004.2 - 0.2 - Partly cloudy 10 - - - -
07/02:30am 28.3 SE 6 8 1004.2 - 0.2 - Partly cloudy 10 - - - -
07/02:13am 28.4 SE 5 7 1004.2 - 0.2 - Partly cloudy 10 - - - -
07/02:00am 28.5 SSE 5 6 1004.4 - 0.2 - Partly cloudy 10 - - - -
07/01:30am 28.4 S 2 5 1004.7 - 0.2 - Partly cloudy 10 - - - -
07/01:00am 28.6 SSW 5 6 1005.0 - 0.2 - Partly cloudy 10 - - - -
07/12:30am 28.8 S 5 6 1005.1 - 0.2 - Partly cloudy 10 - - - -
07/12:00am 29.0 S 3 5 1005.4 F 0.2 - Cloudy 10 - - - -
 
Date/Time
EST
Temp

°C
Wind Pressure Rain
since 9am
mm
Weather Cloud Vis
km
Sea
Height
m
Swell
Dir
 
Speed
knots
Gust
knots
hPa Trend Height
m
Period
s
Dir
06/11:45pm 29.1 CALM 0 0 1005.5 - 0.2 - Partly cloudy 10 - - - -
06/11:30pm 29.2 NW 3 5 1005.6 - 0.2 - Partly cloudy 10 - - - -
06/11:00pm 29.4 E 5 6 1005.9 - 0.2 - Partly cloudy 10 - - - -
06/10:30pm 29.3 SSE 1 4 1005.8 - 0.2 - Mostly clear 10 - - - -
06/10:00pm 29.3 S 6 8 1005.4 - 0.2 - Partly cloudy 10 - - - -
06/09:30pm 29.4 CALM 0 0 1005.3 - 0.2 - Mostly clear 10 - - - -
06/09:00pm 29.6 ENE 5 7 1005.2 R 0.2 Fine Mostly cloudy 25 - - - -
06/08:30pm 29.3 ENE 5 6 1004.7 - 0.2 - Mostly clear 10 - - - -
06/08:00pm 29.4 E 5 8 1004.5 - 0.2 - Mostly clear 10 - - - -
06/07:30pm 29.5 ESE 7 8 1004.0 - 0.2 - Mostly clear 10 - - - -
06/07:27pm 29.5 ESE 7 8 1003.9 - 0.2 - Partly cloudy 10 - - - -
06/07:00pm 29.5 E 5 6 1003.4 - 0.2 - Mostly clear 10 - - - -
06/06:30pm 29.8 ENE 5 6 1002.9 - 0.2 - Mostly clear 10 - - - -
06/06:00pm 29.9 NE 7 8 1002.6 R 0.2 Distant precip. Mostly cloudy 25 - - - -
06/05:30pm 30.0 NE 7 8 1002.1 - 0.2 - Mostly clear 10 - - - -
06/05:00pm 30.0 E 8 9 1001.5 - 0.2 - Mostly clear 10 - - - -
06/04:30pm 30.4 ENE 9 11 1001.5 - 0.2 - Mostly clear 10 - - - -
06/04:00pm 30.3 E 9 12 1001.7 - 0.2 - Mostly clear 10 - - - -
06/03:30pm 30.4 ENE 10 14 1001.7 - 0.2 - Mostly clear 10 - - - -
06/03:00pm 30.9 ENE 12 15 1001.9 R 0.2 Distant precip. Mostly cloudy 25 - - - -
06/02:30pm 30.8 ENE 12 14 1002.1 - 0.2 - Mostly clear 10 - - - -
06/02:00pm 30.7 ENE 14 18 1001.8 - 0.2 - Mostly clear 10 - - - -
06/01:47pm 31.0 ENE 14 17 1002.1 - 0.2 - - 10 - - - -
06/01:30pm 30.9 ENE 13 16 1002.2 - 0.2 - - 10 - - - -
06/01:00pm 31.1 ENE 14 17 1002.3 - 0.2 - Mostly clear 10 - - - -
06/12:30pm 30.9 ENE 12 15 1002.8 - 0.2 - Mostly clear 10 - - - -
06/12:00pm 30.9 NE 10 14 1003.3 R 0.2 Distant precip. Mostly cloudy 40 - - - -
06/11:30am 31.1 NE 9 11 1003.6 - 0.2 - Mostly clear 10 - - - -
06/11:00am 30.6 NE 10 13 1003.6 - 0.2 - Mostly clear 10 - - - -
06/10:30am 31.0 NE 10 14 1003.7 - 0.2 - Partly cloudy 10 - - - -
06/10:00am 30.2 ESE 7 9 1003.7 - 0.2 - Mostly clear 10 - - - -
06/09:30am 30.1 ENE 5 9 1003.7 - 0.2 - Mostly clear 10 - - - -
06/09:00am 30.3 E 5 7 1003.6 R 9.4 Fine Mostly cloudy 60 - - - -
06/08:30am 29.5 S 4 6 1003.6 - 9.4 - Mostly clear 10 - - - -
06/08:00am 28.3 WSW 3 5 1003.2 - 9.4 - Mostly clear 10 - - - -
06/07:30am 27.3 W 5 6 1003.1 - 9.4 - Mostly clear 10 - - - -
06/07:00am 26.9 SE 1 4 1002.8 - 9.4 - Mostly clear 10 - - - -
06/06:30am 26.5 CALM 0 0 1002.5 - 9.4 - Mostly clear 10 - - - -
06/06:00am 26.5 SSE 6 7 1001.9 R 9.4 Distant precip. Mostly cloudy 40 - - - -
06/05:30am 26.5 SE 6 8 1001.9 - 9.4 - - 10 - - - -
06/05:00am 26.6 SSE 6 8 1001.7 - 9.4 - Partly cloudy 10 - - - -
06/04:30am 26.6 ESE 1 5 1001.5 - 9.4 - Partly cloudy 10 - - - -
06/04:00am 26.6 ESE 3 4 1001.1 - 9.4 - Partly cloudy 10 - - - -
06/03:30am 26.6 SE 4 5 1001.0 - 9.4 - Partly cloudy 10 - - - -
06/03:00am 26.6 SSW 6 6 1000.8 F 9.4 Rain Cloudy 10 - - - -
06/02:44am 26.7 CALM 0 0 1001.1 - 9.2 - Partly cloudy 10 - - - -
06/02:34am 26.7 CALM 0 0 1001.2 - 9.2 - Partly cloudy 10 - - - -
06/02:30am 26.7 CALM 0 0 1001.2 - 9.0 - Partly cloudy 10 - - - -
06/02:06am 26.6 NW 2 5 1001.4 - 8.8 - Partly cloudy 10 - - - -
06/02:00am 26.6 CALM 0 0 1001.3 - 8.8 - Partly cloudy 10 - - - -
06/01:53am 26.7 CALM 0 0 1001.5 - 8.6 - Partly cloudy 10 - - - -
06/01:41am 26.6 CALM 0 0 1001.5 - 8.6 - - 10 - - - -
06/01:31am 26.6 NNE 3 5 1001.7 - 8.6 - - 10 - - - -
06/01:30am 26.6 NNE 3 5 1001.7 - 8.6 - - 10 - - - -
06/01:24am 26.5 NNE 3 5 1001.8 - 8.6 - - 10 - - - -
06/01:08am 26.5 NNE 1 4 1001.6 - 8.6 - - 10 - - - -
06/01:06am 26.7 NNE 2 5 1001.6 - 8.6 - Partly cloudy 10 - - - -
06/01:00am 26.5 NNE 4 5 1001.6 - 8.6 - Partly cloudy 10 - - - -
06/12:56am 26.5 ENE 2 5 1001.7 - 8.6 - Partly cloudy 10 - - - -
06/12:30am 26.3 ESE 6 7 1002.3 - 8.6 - Partly cloudy 10 - - - -
06/12:00am 26.7 SSE 5 5 1003.1 F 8.6 Showers Cloudy 10 - - - -
 
Date/Time
EST
Temp

°C
Wind Pressure Rain
since 9am
mm
Weather Cloud Vis
km
Sea
Height
m
Swell
Dir
 
Speed
knots
Gust
knots
hPa Trend Height
m
Period
s
Dir
05/11:49pm 26.8 SSE 1 5 1003.2 - 8.6 - Partly cloudy 10 - - - -
05/11:30pm 26.7 CALM 0 0 1003.0 - 8.4 - Partly cloudy 10 - - - -
05/11:21pm 26.7 SSE 1 4 1003.3 - 8.4 - Partly cloudy 10 - - - -
05/11:16pm 26.6 SSE 2 4 1003.5 - 8.4 - Partly cloudy 10 - - - -
05/11:00pm 26.6 CALM 0 0 1003.6 - 8.4 - Partly cloudy 10 - - - -
05/10:30pm 26.3 SSE 4 5 1003.1 - 8.2 Rain Mostly clear 9 - - - -
05/10:00pm 26.3 SSE 5 6 1003.8 - 7.6 - Mostly clear 9 - - - -
05/09:47pm 26.1 CALM 0 0 1003.6 - 7.6 Thunder Mostly clear 8 - - - -
05/09:30pm 26.1 CALM 0 0 1004.0 - 7.4 Thunderstorm Mostly clear 6 - - - -
05/09:00pm 26.5 W 1 7 1003.9 R 6.6 Thunderstorm Mostly cloudy 4 - - - -
05/08:53pm 26.6 WSW 3 6 1003.5 - 6.2 Thunderstorm Mostly clear 6 - - - -
05/08:30pm 26.7 SW 7 8 1003.3 - 5.4 Thunderstorm Mostly clear 4 - - - -
05/08:25pm 26.9 SW 6 8 1003.3 - 5.4 Thunderstorm Mostly clear 4 - - - -
05/08:13pm 27.9 S 11 23 1003.3 - 5.2 Showers Mostly clear 2 - - - -
05/08:05pm 28.7 NW 9 23 1003.3 - 1.2 Thunderstorm Mostly clear 1 - - - -
05/08:00pm 29.8 NNW 6 8 1003.1 - 0.0 - Mostly clear 1 - - - -
05/07:55pm 29.8 N 8 10 1002.7 - 0.0 Thunderstorm Mostly clear 3 - - - -
05/07:50pm 29.8 N 8 11 1002.5 - 0.0 Thunderstorm Mostly clear 5 - - - -
05/07:30pm 29.7 N 7 9 1002.3 - 0.0 Thunder Mostly clear 10 - - - -
05/07:19pm 29.7 NNE 7 9 1002.1 - 0.0 Thunderstorm Mostly clear 8 - - - -
05/07:00pm 29.9 N 7 9 1002.0 - 0.0 - Mostly clear 10 - - - -
05/06:30pm 30.0 N 6 8 1001.5 - 0.0 - Mostly clear 10 - - - -
05/06:00pm 30.4 N 8 10 1000.3 F 0.0 Distant precip. Mostly cloudy 30 - - - -
05/05:30pm 31.1 N 8 10 1000.0 - 0.0 - Mostly clear 10 - - - -
05/05:00pm 31.1 NNE 7 10 1000.2 - 0.0 - Mostly clear 10 - - - -
05/04:30pm 31.3 N 9 11 999.5 - 0.0 - Mostly clear 10 - - - -
05/04:24pm 31.1 N 9 11 999.7 - 0.0 - Partly cloudy 10 - - - -
05/04:00pm 31.5 N 9 12 1000.1 - 0.0 - Mostly clear 10 - - - -
05/03:30pm 30.9 NE 9 13 1000.3 - 0.0 - Mostly clear 10 - - - -
05/03:00pm 30.8 NE 10 14 1000.6 F 0.0 Distant precip. Mostly cloudy 30 - - - -
05/02:30pm 33.1 NE 8 14 1000.5 - 0.0 - Partly cloudy 10 - - - -
05/02:23pm 32.5 ENE 10 14 1000.5 - 0.0 - Partly cloudy 10 - - - -
05/02:00pm 32.4 NNE 8 14 1001.0 - 0.0 - Mostly clear 10 - - - -
05/01:53pm 32.5 NE 8 15 1001.2 - 0.0 Thunder Mostly clear 10 - - - -
05/01:30pm 32.8 NNE 11 15 1001.2 - 0.0 - Mostly clear 10 - - - -
05/01:00pm 32.6 NNE 9 15 1001.7 - 0.0 - Mostly clear 10 - - - -
05/12:30pm 31.9 N 8 11 1002.2 - 0.0 - Mostly clear 10 - - - -
05/12:00pm 31.8 N 8 12 1002.7 F 0.0 Distant precip. Mostly cloudy 35 - - - -
05/11:30am 31.5 N 7 10 1003.0 - 0.0 - Mostly clear 10 - - - -
05/11:00am 31.3 NNW 6 9 1003.3 - 0.0 - Mostly clear 10 - - - -
05/10:30am 30.4 NNW 4 6 1003.7 - 0.0 - Mostly clear 10 - - - -
05/10:00am 30.1 NNW 4 7 1003.9 - 0.0 - Mostly clear 10 - - - -
05/09:30am 29.9 NNE 3 5 1004.0 - 0.0 - Mostly clear 10 - - - -
05/09:00am 29.4 CALM 0 0 1004.1 R 3.4 Distant precip. Mostly cloudy 25 - - - -
05/08:30am 28.8 CALM 0 0 1004.1 - 3.2 - Mostly clear 10 - - - -
05/08:00am 28.4 CALM 0 0 1003.7 - 3.2 - Mostly clear 10 - - - -
05/07:30am 28.3 CALM 0 0 1003.4 - 3.2 - Mostly clear 10 - - - -
05/07:00am 27.7 CALM 0 0 1002.8 - 3.2 - Mostly clear 10 - - - -
05/06:30am 27.3 CALM 0 0 1002.5 - 3.2 - Mostly clear 10 - - - -
05/06:00am 27.0 CALM 0 0 1002.1 R 3.2 Fine Cloudy 25 - - - -
05/05:30am 27.0 CALM 0 0 1001.7 - 3.2 - Partly cloudy 10 - - - -
05/05:00am 27.0 CALM 0 0 1001.4 - 3.2 - - 10 - - - -
05/04:30am 26.9 CALM 0 0 1001.3 - 3.2 - Partly cloudy 10 - - - -
05/04:00am 27.1 CALM 0 0 1001.6 - 3.2 - Partly cloudy 10 - - - -

Other Formats:

Comma delimited format used in spreadsheet applications
http://www.bom.gov.au/fwo/IDQ60701/IDQ60701.94294.axf

JavaScript Object Notation format (JSON) in row-major order
http://www.bom.gov.au/fwo/IDQ60701/IDQ60701.94294.json